sensor_id;sensor_type;location;lat;lon;timestamp;P1;durP1;ratioP1;P2;durP2;ratioP2
67979;SDS011;54760;47.490;19.030;2023-03-23T00:02:06;11.93;;;7.40;;
67979;SDS011;54760;47.490;19.030;2023-03-23T00:04:31;14.60;;;7.90;;
67979;SDS011;54760;47.490;19.030;2023-03-23T00:06:57;10.52;;;6.97;;
67979;SDS011;54760;47.490;19.030;2023-03-23T00:09:25;13.68;;;7.15;;
67979;SDS011;54760;47.490;19.030;2023-03-23T00:11:51;13.40;;;7.50;;
67979;SDS011;54760;47.490;19.030;2023-03-23T00:14:17;12.43;;;7.72;;
67979;SDS011;54760;47.490;19.030;2023-03-23T00:16:47;16.42;;;7.87;;
67979;SDS011;54760;47.490;19.030;2023-03-23T00:19:14;16.40;;;7.60;;
67979;SDS011;54760;47.490;19.030;2023-03-23T00:21:40;14.32;;;8.00;;
67979;SDS011;54760;47.490;19.030;2023-03-23T00:24:07;11.48;;;6.95;;
67979;SDS011;54760;47.490;19.030;2023-03-23T00:26:34;13.35;;;7.62;;
67979;SDS011;54760;47.490;19.030;2023-03-23T00:29:05;11.98;;;7.37;;
67979;SDS011;54760;47.490;19.030;2023-03-23T00:31:32;13.55;;;7.85;;
67979;SDS011;54760;47.490;19.030;2023-03-23T00:34:00;12.93;;;7.90;;
67979;SDS011;54760;47.490;19.030;2023-03-23T00:36:29;16.08;;;7.75;;
67979;SDS011;54760;47.490;19.030;2023-03-23T00:39:00;15.18;;;8.40;;
67979;SDS011;54760;47.490;19.030;2023-03-23T00:41:29;13.93;;;7.90;;
67979;SDS011;54760;47.490;19.030;2023-03-23T00:43:56;14.10;;;7.85;;
67979;SDS011;54760;47.490;19.030;2023-03-23T00:46:23;13.35;;;7.85;;
67979;SDS011;54760;47.490;19.030;2023-03-23T00:48:49;15.02;;;8.55;;
67979;SDS011;54760;47.490;19.030;2023-03-23T00:51:16;16.40;;;8.02;;
67979;SDS011;54760;47.490;19.030;2023-03-23T00:53:43;14.95;;;9.05;;
67979;SDS011;54760;47.490;19.030;2023-03-23T00:56:09;16.02;;;8.10;;
67979;SDS011;54760;47.490;19.030;2023-03-23T00:58:35;86.70;;;17.02;;
67979;SDS011;54760;47.490;19.030;2023-03-23T01:01:01;20.12;;;9.43;;
67979;SDS011;54760;47.490;19.030;2023-03-23T01:03:27;17.90;;;9.13;;
67979;SDS011;54760;47.490;19.030;2023-03-23T01:05:53;15.30;;;8.93;;
67979;SDS011;54760;47.490;19.030;2023-03-23T01:08:20;14.15;;;8.65;;
67979;SDS011;54760;47.490;19.030;2023-03-23T01:10:46;16.87;;;8.35;;
67979;SDS011;54760;47.490;19.030;2023-03-23T01:13:12;15.68;;;8.88;;
67979;SDS011;54760;47.490;19.030;2023-03-23T01:15:39;15.48;;;8.48;;
67979;SDS011;54760;47.490;19.030;2023-03-23T01:18:04;14.63;;;8.65;;
67979;SDS011;54760;47.490;19.030;2023-03-23T01:20:30;18.50;;;8.32;;
67979;SDS011;54760;47.490;19.030;2023-03-23T01:22:57;12.05;;;7.78;;
67979;SDS011;54760;47.490;19.030;2023-03-23T01:25:26;10.55;;;8.40;;
67979;SDS011;54760;47.490;19.030;2023-03-23T01:27:53;14.02;;;8.10;;
67979;SDS011;54760;47.490;19.030;2023-03-23T01:30:18;16.42;;;8.35;;
67979;SDS011;54760;47.490;19.030;2023-03-23T01:32:44;15.23;;;8.10;;
67979;SDS011;54760;47.490;19.030;2023-03-23T01:35:12;15.43;;;7.90;;
67979;SDS011;54760;47.490;19.030;2023-03-23T01:37:38;15.30;;;8.13;;
67979;SDS011;54760;47.490;19.030;2023-03-23T01:40:03;15.52;;;9.13;;
67979;SDS011;54760;47.490;19.030;2023-03-23T01:42:31;18.55;;;8.90;;
67979;SDS011;54760;47.490;19.030;2023-03-23T01:45:17;16.60;;;9.00;;
67979;SDS011;54760;47.490;19.030;2023-03-23T01:47:43;18.13;;;9.03;;
67979;SDS011;54760;47.490;19.030;2023-03-23T01:50:10;15.75;;;8.25;;
67979;SDS011;54760;47.490;19.030;2023-03-23T01:52:36;20.27;;;9.30;;
67979;SDS011;54760;47.490;19.030;2023-03-23T01:55:01;15.00;;;8.35;;
67979;SDS011;54760;47.490;19.030;2023-03-23T01:57:28;16.42;;;8.52;;
67979;SDS011;54760;47.490;19.030;2023-03-23T01:59:55;14.27;;;8.43;;
67979;SDS011;54760;47.490;19.030;2023-03-23T02:02:26;13.50;;;8.07;;
67979;SDS011;54760;47.490;19.030;2023-03-23T02:04:52;13.30;;;8.13;;
67979;SDS011;54760;47.490;19.030;2023-03-23T02:07:22;15.68;;;8.60;;
67979;SDS011;54760;47.490;19.030;2023-03-23T02:09:49;15.45;;;8.68;;
67979;SDS011;54760;47.490;19.030;2023-03-23T02:12:15;13.93;;;8.32;;
67979;SDS011;54760;47.490;19.030;2023-03-23T02:14:40;11.65;;;8.05;;
67979;SDS011;54760;47.490;19.030;2023-03-23T02:35:58;13.60;;;8.13;;
67979;SDS011;54760;47.490;19.030;2023-03-23T02:41:02;16.08;;;8.63;;
67979;SDS011;54760;47.490;19.030;2023-03-23T02:43:30;14.77;;;8.30;;
67979;SDS011;54760;47.490;19.030;2023-03-23T02:46:01;13.13;;;8.15;;
67979;SDS011;54760;47.490;19.030;2023-03-23T02:48:31;14.73;;;8.45;;
67979;SDS011;54760;47.490;19.030;2023-03-23T02:50:58;14.50;;;7.80;;
67979;SDS011;54760;47.490;19.030;2023-03-23T02:53:27;14.35;;;8.45;;
67979;SDS011;54760;47.490;19.030;2023-03-23T02:55:54;13.07;;;7.70;;
67979;SDS011;54760;47.490;19.030;2023-03-23T02:58:22;15.18;;;7.82;;
67979;SDS011;54760;47.490;19.030;2023-03-23T03:00:48;12.65;;;8.00;;
67979;SDS011;54760;47.490;19.030;2023-03-23T03:03:17;13.57;;;7.95;;
67979;SDS011;54760;47.490;19.030;2023-03-23T03:11:16;13.65;;;8.55;;
67979;SDS011;54760;47.490;19.030;2023-03-23T03:14:07;15.85;;;8.77;;
67979;SDS011;54760;47.490;19.030;2023-03-23T03:19:26;14.05;;;8.50;;
67979;SDS011;54760;47.490;19.030;2023-03-23T03:21:54;14.20;;;8.70;;
67979;SDS011;54760;47.490;19.030;2023-03-23T03:24:23;17.17;;;9.35;;
67979;SDS011;54760;47.490;19.030;2023-03-23T03:26:52;15.82;;;9.80;;
67979;SDS011;54760;47.490;19.030;2023-03-23T03:29:29;14.55;;;8.43;;
67979;SDS011;54760;47.490;19.030;2023-03-23T03:31:58;12.30;;;8.25;;
67979;SDS011;54760;47.490;19.030;2023-03-23T03:34:27;13.23;;;8.18;;
67979;SDS011;54760;47.490;19.030;2023-03-23T03:36:54;15.02;;;8.65;;
67979;SDS011;54760;47.490;19.030;2023-03-23T03:39:23;14.63;;;8.82;;
67979;SDS011;54760;47.490;19.030;2023-03-23T03:41:49;12.00;;;7.95;;
67979;SDS011;54760;47.490;19.030;2023-03-23T03:44:15;14.18;;;8.80;;
67979;SDS011;54760;47.490;19.030;2023-03-23T03:46:40;15.07;;;8.05;;
67979;SDS011;54760;47.490;19.030;2023-03-23T03:49:06;12.23;;;8.43;;
67979;SDS011;54760;47.490;19.030;2023-03-23T03:51:34;14.13;;;8.20;;
67979;SDS011;54760;47.490;19.030;2023-03-23T03:54:00;14.52;;;8.02;;
67979;SDS011;54760;47.490;19.030;2023-03-23T03:56:26;13.45;;;7.85;;
67979;SDS011;54760;47.490;19.030;2023-03-23T03:58:51;13.45;;;8.45;;
67979;SDS011;54760;47.490;19.030;2023-03-23T04:01:18;16.55;;;7.70;;
67979;SDS011;54760;47.490;19.030;2023-03-23T04:03:47;13.07;;;7.82;;
67979;SDS011;54760;47.490;19.030;2023-03-23T04:06:14;13.80;;;8.32;;
67979;SDS011;54760;47.490;19.030;2023-03-23T04:08:40;19.77;;;8.70;;
67979;SDS011;54760;47.490;19.030;2023-03-23T04:11:09;17.73;;;9.18;;
67979;SDS011;54760;47.490;19.030;2023-03-23T04:13:36;20.98;;;8.77;;
67979;SDS011;54760;47.490;19.030;2023-03-23T04:16:02;25.50;;;9.18;;
67979;SDS011;54760;47.490;19.030;2023-03-23T04:18:27;18.80;;;8.85;;
67979;SDS011;54760;47.490;19.030;2023-03-23T04:20:54;16.35;;;8.02;;
67979;SDS011;54760;47.490;19.030;2023-03-23T04:23:23;17.58;;;8.75;;
67979;SDS011;54760;47.490;19.030;2023-03-23T04:25:50;20.15;;;8.38;;
67979;SDS011;54760;47.490;19.030;2023-03-23T04:28:17;18.42;;;10.02;;
67979;SDS011;54760;47.490;19.030;2023-03-23T04:30:44;20.33;;;8.95;;
67979;SDS011;54760;47.490;19.030;2023-03-23T04:33:10;20.90;;;8.80;;
67979;SDS011;54760;47.490;19.030;2023-03-23T04:35:42;18.35;;;9.85;;
67979;SDS011;54760;47.490;19.030;2023-03-23T04:38:10;17.48;;;9.25;;
67979;SDS011;54760;47.490;19.030;2023-03-23T04:40:37;17.42;;;8.90;;
67979;SDS011;54760;47.490;19.030;2023-03-23T04:43:04;16.12;;;8.68;;
67979;SDS011;54760;47.490;19.030;2023-03-23T04:45:31;16.40;;;9.25;;
67979;SDS011;54760;47.490;19.030;2023-03-23T04:47:58;16.67;;;9.10;;
67979;SDS011;54760;47.490;19.030;2023-03-23T04:50:28;14.38;;;8.48;;
67979;SDS011;54760;47.490;19.030;2023-03-23T04:52:56;18.23;;;9.63;;
67979;SDS011;54760;47.490;19.030;2023-03-23T04:55:24;18.05;;;8.93;;
67979;SDS011;54760;47.490;19.030;2023-03-23T04:57:50;18.17;;;9.57;;
67979;SDS011;54760;47.490;19.030;2023-03-23T05:00:17;18.33;;;9.55;;
67979;SDS011;54760;47.490;19.030;2023-03-23T05:02:43;16.65;;;9.02;;
67979;SDS011;54760;47.490;19.030;2023-03-23T05:05:11;22.17;;;9.70;;
67979;SDS011;54760;47.490;19.030;2023-03-23T05:07:39;26.73;;;9.32;;
67979;SDS011;54760;47.490;19.030;2023-03-23T05:10:06;20.88;;;8.57;;
67979;SDS011;54760;47.490;19.030;2023-03-23T05:12:35;18.65;;;8.57;;
67979;SDS011;54760;47.490;19.030;2023-03-23T05:15:02;21.65;;;9.32;;
67979;SDS011;54760;47.490;19.030;2023-03-23T05:17:28;19.02;;;9.35;;
67979;SDS011;54760;47.490;19.030;2023-03-23T05:19:55;19.42;;;8.20;;
67979;SDS011;54760;47.490;19.030;2023-03-23T05:22:21;18.23;;;9.30;;
67979;SDS011;54760;47.490;19.030;2023-03-23T05:24:47;19.67;;;8.70;;
67979;SDS011;54760;47.490;19.030;2023-03-23T05:27:13;18.42;;;8.98;;
67979;SDS011;54760;47.490;19.030;2023-03-23T05:29:42;15.85;;;8.10;;
67979;SDS011;54760;47.490;19.030;2023-03-23T05:32:08;21.20;;;11.05;;
67979;SDS011;54760;47.490;19.030;2023-03-23T05:34:34;21.40;;;10.18;;
67979;SDS011;54760;47.490;19.030;2023-03-23T05:37:00;17.48;;;11.07;;
67979;SDS011;54760;47.490;19.030;2023-03-23T05:39:28;19.15;;;11.35;;
67979;SDS011;54760;47.490;19.030;2023-03-23T05:41:54;17.52;;;10.70;;
67979;SDS011;54760;47.490;19.030;2023-03-23T05:44:20;20.90;;;11.12;;
67979;SDS011;54760;47.490;19.030;2023-03-23T05:46:46;20.58;;;12.32;;
67979;SDS011;54760;47.490;19.030;2023-03-23T05:49:12;18.90;;;11.40;;
67979;SDS011;54760;47.490;19.030;2023-03-23T05:51:38;16.70;;;11.12;;
67979;SDS011;54760;47.490;19.030;2023-03-23T05:54:04;20.23;;;11.60;;
67979;SDS011;54760;47.490;19.030;2023-03-23T05:56:30;17.75;;;10.88;;
67979;SDS011;54760;47.490;19.030;2023-03-23T05:58:56;17.58;;;10.85;;
67979;SDS011;54760;47.490;19.030;2023-03-23T06:01:22;16.27;;;11.27;;
67979;SDS011;54760;47.490;19.030;2023-03-23T06:03:49;17.12;;;10.60;;
67979;SDS011;54760;47.490;19.030;2023-03-23T06:06:16;19.70;;;11.55;;
67979;SDS011;54760;47.490;19.030;2023-03-23T06:08:43;17.27;;;10.35;;
67979;SDS011;54760;47.490;19.030;2023-03-23T06:11:09;17.60;;;10.73;;
67979;SDS011;54760;47.490;19.030;2023-03-23T06:13:35;20.65;;;11.10;;
67979;SDS011;54760;47.490;19.030;2023-03-23T06:16:01;15.57;;;10.30;;
67979;SDS011;54760;47.490;19.030;2023-03-23T06:18:27;15.77;;;9.60;;
67979;SDS011;54760;47.490;19.030;2023-03-23T06:20:53;15.85;;;9.27;;
67979;SDS011;54760;47.490;19.030;2023-03-23T06:23:19;13.90;;;8.75;;
67979;SDS011;54760;47.490;19.030;2023-03-23T06:25:44;15.30;;;9.25;;
67979;SDS011;54760;47.490;19.030;2023-03-23T06:28:10;15.88;;;9.20;;
67979;SDS011;54760;47.490;19.030;2023-03-23T06:30:36;14.75;;;8.48;;
67979;SDS011;54760;47.490;19.030;2023-03-23T06:33:02;15.02;;;9.07;;
67979;SDS011;54760;47.490;19.030;2023-03-23T06:35:30;10.50;;;8.15;;
67979;SDS011;54760;47.490;19.030;2023-03-23T06:37:56;11.35;;;8.70;;
67979;SDS011;54760;47.490;19.030;2023-03-23T06:40:23;11.73;;;8.73;;
67979;SDS011;54760;47.490;19.030;2023-03-23T06:42:48;17.70;;;9.10;;
67979;SDS011;54760;47.490;19.030;2023-03-23T06:45:14;14.43;;;8.80;;
67979;SDS011;54760;47.490;19.030;2023-03-23T06:47:39;13.90;;;9.25;;
67979;SDS011;54760;47.490;19.030;2023-03-23T06:50:05;13.07;;;9.05;;
67979;SDS011;54760;47.490;19.030;2023-03-23T06:52:32;12.77;;;9.18;;
67979;SDS011;54760;47.490;19.030;2023-03-23T06:54:58;12.32;;;9.15;;
67979;SDS011;54760;47.490;19.030;2023-03-23T06:57:23;12.43;;;9.05;;
67979;SDS011;54760;47.490;19.030;2023-03-23T06:59:48;15.13;;;9.45;;
67979;SDS011;54760;47.490;19.030;2023-03-23T07:02:14;12.65;;;9.02;;
67979;SDS011;54760;47.490;19.030;2023-03-23T07:04:40;13.93;;;9.13;;
67979;SDS011;54760;47.490;19.030;2023-03-23T07:07:09;18.40;;;9.65;;
67979;SDS011;54760;47.490;19.030;2023-03-23T07:09:37;14.68;;;9.55;;
67979;SDS011;54760;47.490;19.030;2023-03-23T07:12:02;15.00;;;9.98;;
67979;SDS011;54760;47.490;19.030;2023-03-23T07:14:28;15.55;;;9.45;;
67979;SDS011;54760;47.490;19.030;2023-03-23T07:16:54;13.90;;;9.68;;
67979;SDS011;54760;47.490;19.030;2023-03-23T07:19:19;12.95;;;9.60;;
67979;SDS011;54760;47.490;19.030;2023-03-23T07:21:45;15.18;;;10.25;;
67979;SDS011;54760;47.490;19.030;2023-03-23T07:24:13;13.57;;;9.55;;
67979;SDS011;54760;47.490;19.030;2023-03-23T07:26:42;11.70;;;9.45;;
67979;SDS011;54760;47.490;19.030;2023-03-23T07:29:08;14.65;;;9.68;;
67979;SDS011;54760;47.490;19.030;2023-03-23T07:31:34;14.82;;;10.38;;
67979;SDS011;54760;47.490;19.030;2023-03-23T07:34:00;16.10;;;10.13;;
67979;SDS011;54760;47.490;19.030;2023-03-23T07:36:26;14.60;;;10.23;;
67979;SDS011;54760;47.490;19.030;2023-03-23T07:38:52;14.48;;;10.38;;
67979;SDS011;54760;47.490;19.030;2023-03-23T07:41:18;17.40;;;9.98;;
67979;SDS011;54760;47.490;19.030;2023-03-23T07:43:44;12.40;;;9.80;;
67979;SDS011;54760;47.490;19.030;2023-03-23T07:46:10;12.10;;;10.27;;
67979;SDS011;54760;47.490;19.030;2023-03-23T07:48:36;12.52;;;10.00;;
67979;SDS011;54760;47.490;19.030;2023-03-23T07:51:02;18.30;;;10.40;;
67979;SDS011;54760;47.490;19.030;2023-03-23T07:53:28;13.45;;;10.35;;
67979;SDS011;54760;47.490;19.030;2023-03-23T07:55:54;13.98;;;10.68;;
67979;SDS011;54760;47.490;19.030;2023-03-23T07:58:19;13.02;;;10.43;;
67979;SDS011;54760;47.490;19.030;2023-03-23T08:00:46;13.20;;;10.25;;
67979;SDS011;54760;47.490;19.030;2023-03-23T08:03:13;14.30;;;10.75;;
67979;SDS011;54760;47.490;19.030;2023-03-23T08:05:40;16.02;;;10.85;;
67979;SDS011;54760;47.490;19.030;2023-03-23T08:08:07;16.52;;;11.75;;
67979;SDS011;54760;47.490;19.030;2023-03-23T08:10:34;18.75;;;11.10;;
67979;SDS011;54760;47.490;19.030;2023-03-23T08:13:00;15.88;;;11.23;;
67979;SDS011;54760;47.490;19.030;2023-03-23T08:15:27;15.60;;;11.70;;
67979;SDS011;54760;47.490;19.030;2023-03-23T08:17:53;16.70;;;11.35;;
67979;SDS011;54760;47.490;19.030;2023-03-23T08:20:19;15.60;;;11.20;;
67979;SDS011;54760;47.490;19.030;2023-03-23T08:22:48;16.77;;;12.30;;
67979;SDS011;54760;47.490;19.030;2023-03-23T08:25:17;18.40;;;13.43;;
67979;SDS011;54760;47.490;19.030;2023-03-23T08:27:44;19.55;;;13.02;;
67979;SDS011;54760;47.490;19.030;2023-03-23T08:30:10;18.37;;;13.62;;
67979;SDS011;54760;47.490;19.030;2023-03-23T08:32:38;21.23;;;12.30;;
67979;SDS011;54760;47.490;19.030;2023-03-23T08:35:05;18.12;;;12.25;;
67979;SDS011;54760;47.490;19.030;2023-03-23T08:37:32;17.05;;;12.43;;
67979;SDS011;54760;47.490;19.030;2023-03-23T08:39:57;15.95;;;12.20;;
67979;SDS011;54760;47.490;19.030;2023-03-23T08:42:23;19.73;;;12.43;;
67979;SDS011;54760;47.490;19.030;2023-03-23T08:44:50;20.95;;;12.63;;
67979;SDS011;54760;47.490;19.030;2023-03-23T08:47:16;17.87;;;12.13;;
67979;SDS011;54760;47.490;19.030;2023-03-23T08:49:42;17.27;;;12.13;;
67979;SDS011;54760;47.490;19.030;2023-03-23T08:52:08;14.80;;;11.50;;
67979;SDS011;54760;47.490;19.030;2023-03-23T08:54:34;18.95;;;11.95;;
67979;SDS011;54760;47.490;19.030;2023-03-23T08:57:00;17.65;;;11.98;;
67979;SDS011;54760;47.490;19.030;2023-03-23T08:59:26;15.30;;;11.38;;
67979;SDS011;54760;47.490;19.030;2023-03-23T09:01:52;15.70;;;12.00;;
67979;SDS011;54760;47.490;19.030;2023-03-23T09:04:19;17.25;;;11.60;;
67979;SDS011;54760;47.490;19.030;2023-03-23T09:06:45;22.27;;;11.48;;
67979;SDS011;54760;47.490;19.030;2023-03-23T09:09:11;15.95;;;11.45;;
67979;SDS011;54760;47.490;19.030;2023-03-23T09:11:37;13.95;;;10.57;;
67979;SDS011;54760;47.490;19.030;2023-03-23T09:14:04;16.25;;;10.07;;
67979;SDS011;54760;47.490;19.030;2023-03-23T09:16:31;20.00;;;10.70;;
67979;SDS011;54760;47.490;19.030;2023-03-23T09:18:57;13.40;;;9.98;;
67979;SDS011;54760;47.490;19.030;2023-03-23T09:21:24;14.23;;;9.95;;
67979;SDS011;54760;47.490;19.030;2023-03-23T09:23:50;12.23;;;8.65;;
67979;SDS011;54760;47.490;19.030;2023-03-23T09:26:16;13.15;;;8.30;;
67979;SDS011;54760;47.490;19.030;2023-03-23T09:28:42;12.05;;;9.88;;
67979;SDS011;54760;47.490;19.030;2023-03-23T09:31:09;13.48;;;9.43;;
67979;SDS011;54760;47.490;19.030;2023-03-23T09:33:36;13.77;;;9.40;;
67979;SDS011;54760;47.490;19.030;2023-03-23T09:36:02;12.95;;;9.25;;
67979;SDS011;54760;47.490;19.030;2023-03-23T09:38:28;11.70;;;8.93;;
67979;SDS011;54760;47.490;19.030;2023-03-23T09:41:06;12.57;;;9.40;;
67979;SDS011;54760;47.490;19.030;2023-03-23T09:46:28;10.43;;;7.90;;
67979;SDS011;54760;47.490;19.030;2023-03-23T09:48:59;11.18;;;7.03;;
67979;SDS011;54760;47.490;19.030;2023-03-23T09:51:38;10.73;;;7.10;;
67979;SDS011;54760;47.490;19.030;2023-03-23T09:54:16;7.55;;;6.62;;
67979;SDS011;54760;47.490;19.030;2023-03-23T09:56:46;8.48;;;6.40;;
67979;SDS011;54760;47.490;19.030;2023-03-23T10:02:26;9.63;;;6.55;;
67979;SDS011;54760;47.490;19.030;2023-03-23T10:04:55;10.20;;;6.12;;
67979;SDS011;54760;47.490;19.030;2023-03-23T10:07:26;11.48;;;6.00;;
67979;SDS011;54760;47.490;19.030;2023-03-23T10:09:53;11.38;;;7.18;;
67979;SDS011;54760;47.490;19.030;2023-03-23T10:12:29;8.82;;;6.70;;
67979;SDS011;54760;47.490;19.030;2023-03-23T10:14:59;7.60;;;6.07;;
67979;SDS011;54760;47.490;19.030;2023-03-23T10:29:22;9.30;;;7.00;;
67979;SDS011;54760;47.490;19.030;2023-03-23T10:34:47;10.32;;;6.80;;
67979;SDS011;54760;47.490;19.030;2023-03-23T10:37:28;10.80;;;7.07;;
67979;SDS011;54760;47.490;19.030;2023-03-23T10:39:58;14.63;;;6.87;;
67979;SDS011;54760;47.490;19.030;2023-03-23T10:42:25;13.48;;;7.18;;
67979;SDS011;54760;47.490;19.030;2023-03-23T10:44:53;10.13;;;6.47;;
67979;SDS011;54760;47.490;19.030;2023-03-23T10:47:21;10.73;;;7.35;;
67979;SDS011;54760;47.490;19.030;2023-03-23T10:52:32;9.50;;;6.87;;
67979;SDS011;54760;47.490;19.030;2023-03-23T10:55:09;9.27;;;6.25;;
67979;SDS011;54760;47.490;19.030;2023-03-23T10:57:42;9.07;;;6.57;;
67979;SDS011;54760;47.490;19.030;2023-03-23T11:00:24;10.52;;;6.72;;
67979;SDS011;54760;47.490;19.030;2023-03-23T11:05:31;8.63;;;4.05;;
67979;SDS011;54760;47.490;19.030;2023-03-23T11:08:03;8.50;;;4.05;;
67979;SDS011;54760;47.490;19.030;2023-03-23T11:10:38;5.00;;;3.50;;
67979;SDS011;54760;47.490;19.030;2023-03-23T11:13:10;5.25;;;3.40;;
67979;SDS011;54760;47.490;19.030;2023-03-23T11:15:39;5.30;;;3.53;;
67979;SDS011;54760;47.490;19.030;2023-03-23T11:18:09;6.35;;;3.25;;
67979;SDS011;54760;47.490;19.030;2023-03-23T11:20:38;6.90;;;3.08;;
67979;SDS011;54760;47.490;19.030;2023-03-23T11:23:17;6.32;;;3.20;;
67979;SDS011;54760;47.490;19.030;2023-03-23T11:26:00;8.20;;;3.35;;
67979;SDS011;54760;47.490;19.030;2023-03-23T11:28:58;5.78;;;3.05;;
67979;SDS011;54760;47.490;19.030;2023-03-23T11:31:46;4.95;;;3.42;;
67979;SDS011;54760;47.490;19.030;2023-03-23T11:36:41;6.18;;;3.40;;
67979;SDS011;54760;47.490;19.030;2023-03-23T11:39:46;4.95;;;3.28;;
67979;SDS011;54760;47.490;19.030;2023-03-23T11:42:22;4.35;;;3.20;;
67979;SDS011;54760;47.490;19.030;2023-03-23T11:45:19;5.22;;;3.67;;
67979;SDS011;54760;47.490;19.030;2023-03-23T11:50:29;7.80;;;4.10;;
67979;SDS011;54760;47.490;19.030;2023-03-23T11:53:02;8.82;;;3.75;;
67979;SDS011;54760;47.490;19.030;2023-03-23T11:55:56;8.85;;;4.05;;
67979;SDS011;54760;47.490;19.030;2023-03-23T11:58:30;6.35;;;3.60;;
67979;SDS011;54760;47.490;19.030;2023-03-23T12:03:54;5.93;;;3.78;;
67979;SDS011;54760;47.490;19.030;2023-03-23T12:06:48;5.78;;;3.92;;
67979;SDS011;54760;47.490;19.030;2023-03-23T12:09:21;6.87;;;3.87;;
67979;SDS011;54760;47.490;19.030;2023-03-23T12:12:03;4.50;;;3.85;;
67979;SDS011;54760;47.490;19.030;2023-03-23T12:17:41;8.50;;;3.22;;
67979;SDS011;54760;47.490;19.030;2023-03-23T12:26:13;4.93;;;2.87;;
67979;SDS011;54760;47.490;19.030;2023-03-23T12:44:44;6.10;;;2.95;;
67979;SDS011;54760;47.490;19.030;2023-03-23T12:47:23;5.57;;;2.92;;
67979;SDS011;54760;47.490;19.030;2023-03-23T12:50:09;3.28;;;2.50;;
67979;SDS011;54760;47.490;19.030;2023-03-23T12:52:50;5.05;;;2.70;;
67979;SDS011;54760;47.490;19.030;2023-03-23T12:56:02;2.85;;;2.28;;
67979;SDS011;54760;47.490;19.030;2023-03-23T12:58:30;5.25;;;2.20;;
67979;SDS011;54760;47.490;19.030;2023-03-23T13:01:07;3.08;;;2.47;;
67979;SDS011;54760;47.490;19.030;2023-03-23T13:06:15;3.58;;;2.55;;
67979;SDS011;54760;47.490;19.030;2023-03-23T13:11:38;4.05;;;2.50;;
67979;SDS011;54760;47.490;19.030;2023-03-23T13:14:13;3.80;;;2.28;;
67979;SDS011;54760;47.490;19.030;2023-03-23T13:24:54;5.45;;;2.50;;
67979;SDS011;54760;47.490;19.030;2023-03-23T13:27:25;5.87;;;3.08;;
67979;SDS011;54760;47.490;19.030;2023-03-23T13:29:57;4.30;;;2.60;;
67979;SDS011;54760;47.490;19.030;2023-03-23T13:32:44;4.97;;;2.35;;
67979;SDS011;54760;47.490;19.030;2023-03-23T13:35:13;5.35;;;2.75;;
67979;SDS011;54760;47.490;19.030;2023-03-23T13:37:50;5.50;;;2.67;;
67979;SDS011;54760;47.490;19.030;2023-03-23T13:42:54;7.50;;;2.72;;
67979;SDS011;54760;47.490;19.030;2023-03-23T13:45:23;6.85;;;2.67;;
67979;SDS011;54760;47.490;19.030;2023-03-23T13:47:49;4.85;;;2.62;;
67979;SDS011;54760;47.490;19.030;2023-03-23T13:50:27;3.47;;;2.70;;
67979;SDS011;54760;47.490;19.030;2023-03-23T13:52:58;5.05;;;2.95;;
67979;SDS011;54760;47.490;19.030;2023-03-23T14:03:05;5.97;;;3.08;;
67979;SDS011;54760;47.490;19.030;2023-03-23T14:08:24;6.78;;;2.85;;
67979;SDS011;54760;47.490;19.030;2023-03-23T14:11:01;4.75;;;2.90;;
67979;SDS011;54760;47.490;19.030;2023-03-23T14:16:31;3.70;;;2.50;;
67979;SDS011;54760;47.490;19.030;2023-03-23T14:19:02;4.75;;;2.62;;
67979;SDS011;54760;47.490;19.030;2023-03-23T14:21:39;4.37;;;2.70;;
67979;SDS011;54760;47.490;19.030;2023-03-23T14:24:15;3.15;;;2.62;;
67979;SDS011;54760;47.490;19.030;2023-03-23T14:26:42;6.32;;;3.10;;
67979;SDS011;54760;47.490;19.030;2023-03-23T14:41:42;5.00;;;2.75;;
67979;SDS011;54760;47.490;19.030;2023-03-23T14:44:13;5.85;;;2.70;;
67979;SDS011;54760;47.490;19.030;2023-03-23T14:46:42;4.68;;;2.83;;
67979;SDS011;54760;47.490;19.030;2023-03-23T14:49:10;4.30;;;2.95;;
67979;SDS011;54760;47.490;19.030;2023-03-23T14:51:48;4.87;;;2.67;;
67979;SDS011;54760;47.490;19.030;2023-03-23T14:56:46;4.78;;;2.50;;
67979;SDS011;54760;47.490;19.030;2023-03-23T14:59:12;4.40;;;2.67;;
67979;SDS011;54760;47.490;19.030;2023-03-23T15:01:37;9.93;;;3.30;;
67979;SDS011;54760;47.490;19.030;2023-03-23T15:04:10;4.53;;;3.30;;
67979;SDS011;54760;47.490;19.030;2023-03-23T15:06:41;8.05;;;3.28;;
67979;SDS011;54760;47.490;19.030;2023-03-23T15:09:13;4.55;;;3.17;;
67979;SDS011;54760;47.490;19.030;2023-03-23T15:11:43;5.87;;;3.03;;
67979;SDS011;54760;47.490;19.030;2023-03-23T15:14:20;6.18;;;3.40;;
67979;SDS011;54760;47.490;19.030;2023-03-23T15:16:48;12.57;;;3.28;;
67979;SDS011;54760;47.490;19.030;2023-03-23T15:19:28;8.90;;;3.12;;
67979;SDS011;54760;47.490;19.030;2023-03-23T15:22:07;4.62;;;2.58;;
67979;SDS011;54760;47.490;19.030;2023-03-23T15:24:42;7.95;;;2.50;;
67979;SDS011;54760;47.490;19.030;2023-03-23T15:27:13;9.43;;;2.78;;
67979;SDS011;54760;47.490;19.030;2023-03-23T15:32:59;6.07;;;3.15;;
67979;SDS011;54760;47.490;19.030;2023-03-23T15:35:33;3.85;;;2.78;;
67979;SDS011;54760;47.490;19.030;2023-03-23T15:38:04;4.45;;;3.03;;
67979;SDS011;54760;47.490;19.030;2023-03-23T15:40:32;5.10;;;3.35;;
67979;SDS011;54760;47.490;19.030;2023-03-23T15:45:33;6.15;;;3.33;;
67979;SDS011;54760;47.490;19.030;2023-03-23T15:48:04;6.32;;;3.40;;
67979;SDS011;54760;47.490;19.030;2023-03-23T15:50:36;5.10;;;3.25;;
67979;SDS011;54760;47.490;19.030;2023-03-23T15:53:38;6.62;;;3.37;;
67979;SDS011;54760;47.490;19.030;2023-03-23T15:55:59;5.07;;;3.12;;
67979;SDS011;54760;47.490;19.030;2023-03-23T15:58:28;5.65;;;3.00;;
67979;SDS011;54760;47.490;19.030;2023-03-23T16:00:54;8.32;;;3.28;;
67979;SDS011;54760;47.490;19.030;2023-03-23T16:03:22;6.25;;;3.03;;
67979;SDS011;54760;47.490;19.030;2023-03-23T16:05:51;7.62;;;3.15;;
67979;SDS011;54760;47.490;19.030;2023-03-23T16:08:18;5.65;;;2.92;;
67979;SDS011;54760;47.490;19.030;2023-03-23T16:10:43;11.90;;;3.30;;
67979;SDS011;54760;47.490;19.030;2023-03-23T16:13:09;7.15;;;2.95;;
67979;SDS011;54760;47.490;19.030;2023-03-23T16:15:35;7.25;;;2.80;;
67979;SDS011;54760;47.490;19.030;2023-03-23T16:18:00;7.85;;;3.00;;
67979;SDS011;54760;47.490;19.030;2023-03-23T16:20:27;4.75;;;2.70;;
67979;SDS011;54760;47.490;19.030;2023-03-23T16:22:53;7.53;;;2.87;;
67979;SDS011;54760;47.490;19.030;2023-03-23T16:25:19;5.95;;;3.00;;
67979;SDS011;54760;47.490;19.030;2023-03-23T16:27:44;4.70;;;2.67;;
67979;SDS011;54760;47.490;19.030;2023-03-23T16:32:43;8.05;;;3.28;;
67979;SDS011;54760;47.490;19.030;2023-03-23T16:35:10;5.55;;;2.60;;
67979;SDS011;54760;47.490;19.030;2023-03-23T16:37:36;5.32;;;2.65;;
67979;SDS011;54760;47.490;19.030;2023-03-23T16:40:02;8.25;;;2.65;;
67979;SDS011;54760;47.490;19.030;2023-03-23T16:42:28;9.40;;;2.90;;
67979;SDS011;54760;47.490;19.030;2023-03-23T16:44:54;5.47;;;2.85;;
67979;SDS011;54760;47.490;19.030;2023-03-23T16:47:19;6.72;;;2.90;;
67979;SDS011;54760;47.490;19.030;2023-03-23T16:49:49;11.70;;;3.28;;
67979;SDS011;54760;47.490;19.030;2023-03-23T16:52:16;7.32;;;2.75;;
67979;SDS011;54760;47.490;19.030;2023-03-23T16:54:42;13.23;;;3.35;;
67979;SDS011;54760;47.490;19.030;2023-03-23T16:57:07;8.27;;;3.42;;